createdAt,value
2016-04-15T00:00:00.767Z,10.36
2016-04-15T00:00:10.769Z,10.38
2016-04-15T00:00:20.769Z,10.38
2016-04-15T00:00:30.769Z,10.34
2016-04-15T00:00:40.785Z,10.36
2016-04-15T00:00:50.785Z,10.33
2016-04-15T00:01:00.785Z,10.38
2016-04-15T00:01:10.804Z,10.34
2016-04-15T00:01:20.804Z,10.34
2016-04-15T00:01:30.804Z,10.41
2016-04-15T00:01:40.804Z,10.36
2016-04-15T00:01:50.819Z,10.31
2016-04-15T00:02:00.819Z,10.39
2016-04-15T00:02:10.837Z,10.34
2016-04-15T00:02:20.821Z,10.43
2016-04-15T00:02:30.837Z,10.33
2016-04-15T00:02:40.853Z,10.36
2016-04-15T00:02:50.853Z,10.36
2016-04-15T00:03:00.853Z,10.36
2016-04-15T00:03:10.856Z,10.41
2016-04-15T00:03:20.856Z,10.39
2016-04-15T00:03:30.871Z,10.33
2016-04-15T00:03:40.871Z,10.33
2016-04-15T00:03:50.871Z,10.36
2016-04-15T00:04:00.887Z,10.34
2016-04-15T00:04:10.890Z,10.3
2016-04-15T00:04:20.890Z,10.38
2016-04-15T00:04:30.890Z,10.38
2016-04-15T00:04:40.905Z,10.34
2016-04-15T00:04:50.905Z,10.3
2016-04-15T00:05:00.921Z,10.3
2016-04-15T00:05:10.907Z,10.33
2016-04-15T00:05:20.923Z,10.43
2016-04-15T00:05:30.923Z,10.31
2016-04-15T00:05:40.923Z,10.25
2016-04-15T00:05:50.939Z,10.3
2016-04-15T00:06:00.939Z,10.36
2016-04-15T00:06:10.942Z,10.36
2016-04-15T00:06:20.957Z,10.3
2016-04-15T00:06:30.957Z,10.34
2016-04-15T00:06:40.957Z,10.33
2016-04-15T00:06:50.957Z,10.38
2016-04-15T00:07:00.957Z,10.27
2016-04-15T00:07:10.976Z,10.34
2016-04-15T00:07:20.976Z,10.24
2016-04-15T00:07:30.976Z,10.31
2016-04-15T00:07:40.992Z,10.33
2016-04-15T00:07:50.992Z,10.39
2016-04-15T00:08:00.992Z,10.31
2016-04-15T00:08:11.009Z,10.21
2016-04-15T00:08:21.009Z,10.18
2016-04-15T00:08:31.009Z,10.27
2016-04-15T00:08:41.025Z,10.31
2016-04-15T00:08:51.025Z,10.18
2016-04-15T00:09:01.025Z,10.36
2016-04-15T00:09:11.028Z,10.34
2016-04-15T00:09:21.043Z,10.21
2016-04-15T00:09:31.043Z,10.31
2016-04-15T00:09:41.043Z,10.24
2016-04-15T00:09:51.043Z,10.34
2016-04-15T00:10:01.059Z,10.24
2016-04-15T00:10:11.062Z,10.28
2016-04-15T00:10:21.062Z,10.36
2016-04-15T00:10:31.078Z,10.39
2016-04-15T00:10:41.078Z,10.23
2016-04-15T00:10:51.078Z,10.33
2016-04-15T00:11:01.093Z,10.28
2016-04-15T00:11:11.096Z,10.31
2016-04-15T00:11:21.096Z,10.27
2016-04-15T00:11:31.096Z,10.27
2016-04-15T00:11:41.112Z,10.27
2016-04-15T00:11:51.112Z,10.3
2016-04-15T00:12:01.112Z,10.31
2016-04-15T00:12:11.131Z,10.28
2016-04-15T00:12:21.131Z,10.31
2016-04-15T00:12:31.131Z,10.31
2016-04-15T00:12:41.131Z,10.28
2016-04-15T00:12:51.146Z,10.33
2016-04-15T00:13:01.146Z,10.18
2016-04-15T00:13:11.148Z,10.28
2016-04-15T00:13:21.148Z,10.28
2016-04-15T00:13:31.164Z,10.28
2016-04-15T00:13:41.164Z,10.3
2016-04-15T00:13:51.179Z,10.23
2016-04-15T00:14:01.179Z,10.27
2016-04-15T00:14:11.182Z,10.24
2016-04-15T00:14:21.198Z,10.34
2016-04-15T00:14:31.214Z,10.33
2016-04-15T00:14:41.198Z,10.23
2016-04-15T00:14:51.198Z,10.21
2016-04-15T00:15:01.198Z,10.2
2016-04-15T00:15:11.200Z,10.12
2016-04-15T00:15:21.216Z,10.21
2016-04-15T00:15:31.216Z,10.3
2016-04-15T00:15:41.216Z,10.18
2016-04-15T00:15:51.231Z,10.31
2016-04-15T00:16:01.247Z,10.28
2016-04-15T00:16:11.234Z,10.21
2016-04-15T00:16:21.250Z,10.28
2016-04-15T00:16:31.250Z,10.25
2016-04-15T00:16:41.250Z,10.25
2016-04-15T00:16:51.250Z,10.25
2016-04-15T00:17:01.266Z,10.27
2016-04-15T00:17:11.269Z,10.25
2016-04-15T00:17:21.269Z,10.25
2016-04-15T00:17:31.284Z,10.24
2016-04-15T00:17:41.284Z,10.18
2016-04-15T00:17:51.284Z,10.25
2016-04-15T00:18:01.284Z,10.3
2016-04-15T00:18:11.302Z,10.17
2016-04-15T00:18:21.302Z,10.3
2016-04-15T00:18:31.302Z,10.2
2016-04-15T00:18:41.317Z,10.2
2016-04-15T00:18:51.317Z,10.23
2016-04-15T00:19:01.317Z,10.24
2016-04-15T00:19:11.336Z,10.3
2016-04-15T00:19:21.336Z,10.23
2016-04-15T00:19:31.336Z,10.2
2016-04-15T00:19:41.336Z,10.17
2016-04-15T00:19:51.352Z,10.24
2016-04-15T00:20:02.432Z,10.21
2016-04-15T00:20:11.354Z,10.2
2016-04-15T00:20:21.369Z,10.2
2016-04-15T00:20:31.369Z,10.2
2016-04-15T00:20:41.369Z,10.23
2016-04-15T00:20:51.369Z,10.17
2016-04-15T00:21:01.385Z,10.15
2016-04-15T00:21:11.388Z,10.23
2016-04-15T00:21:21.388Z,10.18
2016-04-15T00:21:31.404Z,10.21
2016-04-15T00:21:41.404Z,10.23
2016-04-15T00:21:51.404Z,10.21
2016-04-15T00:22:01.407Z,10.21
2016-04-15T00:22:11.422Z,10.21
2016-04-15T00:22:21.422Z,10.15
2016-04-15T00:22:31.438Z,10.23
2016-04-15T00:22:41.422Z,10.18
2016-04-15T00:22:51.438Z,10.15
2016-04-15T00:23:01.440Z,10.21
2016-04-15T00:23:11.440Z,10.18
2016-04-15T00:23:21.455Z,10.21
2016-04-15T00:23:31.455Z,10.18
2016-04-15T00:23:41.455Z,10.18
2016-04-15T00:23:51.471Z,10.12
2016-04-15T00:24:01.474Z,10.21
2016-04-15T00:24:11.474Z,10.07
2016-04-15T00:24:21.474Z,10.15
2016-04-15T00:24:31.490Z,10.12
2016-04-15T00:24:41.490Z,10.13
2016-04-15T00:24:51.490Z,10.2
2016-04-15T00:25:01.493Z,10.1
2016-04-15T00:25:11.508Z,10.13
2016-04-15T00:25:21.508Z,10.02
2016-04-15T00:25:31.508Z,10.18
2016-04-15T00:25:41.524Z,10.1
2016-04-15T00:25:51.524Z,10.13
2016-04-15T00:26:01.527Z,10.15
2016-04-15T00:26:11.527Z,10.2
2016-04-15T00:26:21.543Z,10.1
2016-04-15T00:26:31.543Z,10.07
2016-04-15T00:26:41.543Z,10.12
2016-04-15T00:26:51.558Z,10.06
2016-04-15T00:27:01.561Z,10.1
2016-04-15T00:27:11.561Z,10.07
2016-04-15T00:27:21.561Z,10.1
2016-04-15T00:27:31.577Z,10.13
2016-04-15T00:27:41.577Z,10.09
2016-04-15T00:27:51.577Z,10.15
2016-04-15T00:28:01.594Z,10.09
2016-04-15T00:28:11.594Z,10.25
2016-04-15T00:28:21.594Z,10.03
2016-04-15T00:28:31.594Z,10.21
2016-04-15T00:28:41.610Z,10.13
2016-04-15T00:28:51.610Z,10.23
2016-04-15T00:29:01.613Z,10.18
2016-04-15T00:29:11.629Z,10.1
2016-04-15T00:29:21.629Z,10.18
2016-04-15T00:29:31.660Z,10.12
2016-04-15T00:29:41.629Z,10.15
2016-04-15T00:29:51.644Z,10.18
2016-04-15T00:30:01.646Z,10.23
2016-04-15T00:30:11.646Z,10.21
2016-04-15T00:30:21.662Z,10.17
2016-04-15T00:30:31.662Z,10.2
2016-04-15T00:30:41.662Z,10.25
2016-04-15T00:30:51.662Z,10.21
2016-04-15T00:31:01.681Z,10.23
2016-04-15T00:31:11.681Z,10.21
2016-04-15T00:31:21.681Z,10.18
2016-04-15T00:31:31.696Z,10.18
2016-04-15T00:31:41.696Z,10.21
2016-04-15T00:31:51.712Z,10.17
2016-04-15T00:32:01.699Z,10.21
2016-04-15T00:32:11.715Z,10.17
2016-04-15T00:32:21.731Z,10.21
2016-04-15T00:32:31.731Z,10.24
2016-04-15T00:32:41.731Z,10.21
2016-04-15T00:32:51.731Z,10.24
2016-04-15T00:33:01.734Z,10.21
2016-04-15T00:33:11.734Z,10.21
2016-04-15T00:33:21.750Z,10.18
2016-04-15T00:33:31.750Z,10.24
2016-04-15T00:33:41.750Z,10.21
2016-04-15T00:33:51.750Z,10.28
2016-04-15T00:34:01.768Z,10.21
2016-04-15T00:34:11.768Z,10.15
2016-04-15T00:34:21.768Z,10.13
2016-04-15T00:34:31.783Z,10.18
2016-04-15T00:34:41.783Z,10.21
2016-04-15T00:34:51.783Z,10.15
2016-04-15T00:35:01.803Z,10.09
2016-04-15T00:35:11.794Z,10.13
2016-04-15T00:35:21.810Z,10.15
2016-04-15T00:35:31.810Z,10.15
2016-04-15T00:35:41.810Z,10.15
2016-04-15T00:35:51.825Z,10.1
2016-04-15T00:36:01.827Z,10.18
2016-04-15T00:36:11.827Z,10.27
2016-04-15T00:36:21.843Z,10.07
2016-04-15T00:36:31.843Z,10.21
2016-04-15T00:36:41.843Z,10.07
2016-04-15T00:36:51.843Z,10.18
2016-04-15T00:37:01.846Z,10.17
2016-04-15T00:37:11.862Z,10.06
2016-04-15T00:37:21.862Z,10.18
2016-04-15T00:37:31.862Z,10.21
2016-04-15T00:37:41.877Z,10.06
2016-04-15T00:37:51.877Z,10.02
2016-04-15T00:38:01.879Z,10.1
2016-04-15T00:38:11.879Z,10.05
2016-04-15T00:38:21.895Z,10.03
2016-04-15T00:38:31.895Z,10.18
2016-04-15T00:38:41.895Z,10.07
2016-04-15T00:38:51.895Z,10.15
2016-04-15T00:39:01.913Z,10.09
2016-04-15T00:39:11.913Z,10.15
2016-04-15T00:39:21.913Z,10.07
2016-04-15T00:39:31.929Z,10.05
2016-04-15T00:39:41.929Z,10.2
2016-04-15T00:39:51.945Z,10.2
2016-04-15T00:40:01.948Z,10.12
2016-04-15T00:40:11.948Z,10.07
2016-04-15T00:40:21.948Z,10.13
2016-04-15T00:40:31.948Z,10.18
2016-04-15T00:40:41.963Z,10.06
2016-04-15T00:40:51.963Z,10.1
2016-04-15T00:41:01.965Z,10.07
2016-04-15T00:41:11.981Z,10.17
2016-04-15T00:41:21.981Z,10.1
2016-04-15T00:41:31.981Z,10.07
2016-04-15T00:41:41.997Z,10.1
2016-04-15T00:41:51.997Z,10.17
2016-04-15T00:42:02.000Z,10.07
2016-04-15T00:42:12.000Z,10.18
2016-04-15T00:42:22.015Z,10.06
2016-04-15T00:42:32.015Z,10.1
2016-04-15T00:42:42.015Z,10.1
2016-04-15T00:42:52.015Z,10.06
2016-04-15T00:43:02.033Z,10.05
2016-04-15T00:43:12.033Z,10.1
2016-04-15T00:43:22.033Z,10.1
2016-04-15T00:43:32.048Z,10.03
2016-04-15T00:43:42.048Z,10.05
2016-04-15T00:43:52.048Z,10.05
2016-04-15T00:44:02.051Z,10.07
2016-04-15T00:44:12.067Z,10.06
2016-04-15T00:44:22.067Z,10.07
2016-04-15T00:44:32.067Z,10.12
2016-04-15T00:44:42.114Z,10.05
2016-04-15T00:44:52.083Z,10.06
2016-04-15T00:45:02.086Z,10.03
2016-04-15T00:45:12.101Z,10.05
2016-04-15T00:45:22.101Z,10.07
2016-04-15T00:45:32.101Z,10.09
2016-04-15T00:45:42.101Z,10.09
2016-04-15T00:45:52.101Z,10.12
2016-04-15T00:46:02.120Z,10.06
2016-04-15T00:46:12.120Z,10.02
2016-04-15T00:46:22.120Z,10.09
2016-04-15T00:46:32.136Z,10.07
2016-04-15T00:46:42.136Z,10.05
2016-04-15T00:46:52.136Z,10.05
2016-04-15T00:47:02.154Z,10.05
2016-04-15T00:47:12.154Z,10.12
2016-04-15T00:47:22.154Z,10
2016-04-15T00:47:32.154Z,10.05
2016-04-15T00:47:42.170Z,10.05
2016-04-15T00:47:52.170Z,10.1
2016-04-15T00:48:02.173Z,10.05
2016-04-15T00:48:12.188Z,10.09
2016-04-15T00:48:22.188Z,10.05
2016-04-15T00:48:32.188Z,10.02
2016-04-15T00:48:42.188Z,10.13
2016-04-15T00:48:52.204Z,10.12
2016-04-15T00:49:02.206Z,10.06
2016-04-15T00:49:12.206Z,10.05
2016-04-15T00:49:22.222Z,10.05
2016-04-15T00:49:32.222Z,10.02
2016-04-15T00:49:42.222Z,10.03
2016-04-15T00:49:52.222Z,10.12
2016-04-15T00:50:02.240Z,10
2016-04-15T00:50:12.240Z,9.99
2016-04-15T00:50:22.240Z,10.07
2016-04-15T00:50:32.256Z,10.07
2016-04-15T00:50:42.256Z,10
2016-04-15T00:50:52.256Z,10.07
2016-04-15T00:51:02.259Z,10.03
2016-04-15T00:51:12.275Z,10.09
2016-04-15T00:51:22.275Z,10.06
2016-04-15T00:51:32.275Z,10.1
2016-04-15T00:51:42.290Z,10.1
2016-04-15T00:51:52.290Z,10.03
2016-04-15T00:52:02.292Z,10.07
2016-04-15T00:52:12.292Z,10.06
2016-04-15T00:52:22.308Z,10.03
2016-04-15T00:52:32.308Z,10.07
2016-04-15T00:52:42.308Z,10.06
2016-04-15T00:52:52.308Z,10.05
2016-04-15T00:53:02.326Z,10.07
2016-04-15T00:53:12.326Z,10.09
2016-04-15T00:53:22.326Z,10.05
2016-04-15T00:53:32.326Z,10.05
2016-04-15T00:53:42.342Z,10.06
2016-04-15T00:53:52.342Z,10.06
2016-04-15T00:54:02.360Z,10.07
2016-04-15T00:54:12.360Z,10.1
2016-04-15T00:54:22.360Z,10.2
2016-04-15T00:54:32.360Z,10.06
2016-04-15T00:54:42.375Z,10.02
2016-04-15T00:54:52.375Z,10.12
2016-04-15T00:55:02.378Z,10.06
2016-04-15T00:55:12.378Z,10.07
2016-04-15T00:55:22.394Z,10.07
2016-04-15T00:55:32.394Z,10.07
2016-04-15T00:55:42.394Z,10.13
2016-04-15T00:55:52.410Z,10.05
2016-04-15T00:56:02.412Z,10.06
2016-04-15T00:56:12.412Z,10.03
2016-04-15T00:56:22.427Z,10.02
2016-04-15T00:56:32.427Z,10.07
2016-04-15T00:56:42.427Z,10.03
2016-04-15T00:56:52.427Z,10.09
2016-04-15T00:57:02.446Z,10.03
2016-04-15T00:57:12.446Z,10.07
2016-04-15T00:57:22.446Z,10.06
2016-04-15T00:57:32.461Z,10.05
2016-04-15T00:57:42.461Z,10.07
2016-04-15T00:57:52.461Z,10.05
2016-04-15T00:58:02.464Z,10.02
2016-04-15T00:58:12.480Z,10.05
2016-04-15T00:58:22.480Z,10.09
2016-04-15T00:58:32.480Z,10.03
2016-04-15T00:58:42.496Z,10.05
2016-04-15T00:58:52.496Z,10.07
2016-04-15T00:59:02.498Z,10.03
2016-04-15T00:59:12.498Z,10.07
2016-04-15T00:59:22.529Z,10.05
2016-04-15T00:59:32.513Z,10.06
2016-04-15T00:59:42.576Z,10.05
2016-04-15T00:59:52.513Z,10.06
2016-04-15T01:00:02.532Z,10.07
2016-04-15T01:00:12.532Z,10.07
2016-04-15T01:00:22.532Z,10.05
2016-04-15T01:00:32.532Z,10.09
2016-04-15T01:00:42.548Z,10.09
2016-04-15T01:00:52.548Z,10.02
2016-04-15T01:01:02.551Z,10.06
2016-04-15T01:01:12.566Z,10.07
2016-04-15T01:01:22.566Z,10.07
2016-04-15T01:01:32.566Z,10.05
2016-04-15T01:01:42.582Z,10.02
2016-04-15T01:01:52.582Z,10.12
2016-04-15T01:02:02.585Z,10.18
2016-04-15T01:02:12.600Z,10.06
2016-04-15T01:02:22.600Z,10.15
2016-04-15T01:02:32.600Z,10.05
2016-04-15T01:02:42.600Z,10.18
2016-04-15T01:02:52.616Z,10.09
2016-04-15T01:03:02.619Z,10.07
2016-04-15T01:03:12.619Z,10.05
2016-04-15T01:03:22.635Z,10.09
2016-04-15T01:03:32.635Z,10.03
2016-04-15T01:03:42.635Z,10.13
2016-04-15T01:03:52.635Z,10.09
2016-04-15T01:04:02.652Z,10.1
2016-04-15T01:04:12.652Z,10.15
2016-04-15T01:04:22.652Z,10.15
2016-04-15T01:04:32.652Z,10.17
2016-04-15T01:04:42.668Z,10.03
2016-04-15T01:04:52.668Z,10.07
2016-04-15T01:05:02.687Z,10.07
2016-04-15T01:05:12.687Z,10.05
2016-04-15T01:05:22.687Z,10.03
2016-04-15T01:05:32.687Z,10.12
2016-04-15T01:05:42.702Z,10.18
2016-04-15T01:05:52.702Z,10.06
2016-04-15T01:06:02.704Z,10.07
2016-04-15T01:06:12.704Z,10.05
2016-04-15T01:06:22.704Z,10.09
2016-04-15T01:06:32.720Z,10.13
2016-04-15T01:06:42.720Z,10.15
2016-04-15T01:06:52.720Z,10.06
2016-04-15T01:07:02.738Z,10.07
2016-04-15T01:07:12.738Z,10.07
2016-04-15T01:07:22.738Z,10.07
2016-04-15T01:07:32.754Z,10.17
2016-04-15T01:07:42.754Z,10.18
2016-04-15T01:07:52.754Z,10.07
2016-04-15T01:08:02.757Z,10.02
2016-04-15T01:08:12.773Z,10.1
2016-04-15T01:08:22.773Z,10.2
2016-04-15T01:08:32.773Z,10.15
2016-04-15T01:08:42.788Z,10.07
2016-04-15T01:08:52.788Z,10.18
2016-04-15T01:09:02.791Z,10.15
2016-04-15T01:09:12.791Z,10.17
2016-04-15T01:09:22.807Z,10.09
2016-04-15T01:09:32.807Z,10.09
2016-04-15T01:09:42.807Z,10.15
2016-04-15T01:09:52.807Z,10.15
2016-04-15T01:10:02.825Z,10.07
2016-04-15T01:10:12.825Z,10.09
2016-04-15T01:10:22.825Z,10.06
2016-04-15T01:10:32.840Z,10.18
2016-04-15T01:10:42.840Z,10.2
2016-04-15T01:10:52.840Z,10.17
2016-04-15T01:11:02.843Z,10.13
2016-04-15T01:11:12.859Z,10.1
2016-04-15T01:11:22.859Z,10.12
2016-04-15T01:11:32.859Z,10.06
2016-04-15T01:11:42.874Z,10.1
2016-04-15T01:11:52.874Z,10.07
2016-04-15T01:12:02.876Z,10.07
2016-04-15T01:12:12.876Z,10.09
2016-04-15T01:12:22.892Z,10.1
2016-04-15T01:12:32.892Z,10.06
2016-04-15T01:12:42.892Z,10.09
2016-04-15T01:12:52.908Z,10.05
2016-04-15T01:13:02.911Z,10.09
2016-04-15T01:13:12.911Z,10.03
2016-04-15T01:13:22.926Z,10.05
2016-04-15T01:13:32.926Z,10.05
2016-04-15T01:13:42.926Z,10.05
2016-04-15T01:13:52.942Z,10.05
2016-04-15T01:14:02.945Z,10.06
2016-04-15T01:14:12.945Z,10.07
2016-04-15T01:14:22.961Z,10.05
2016-04-15T01:14:32.992Z,10.07
2016-04-15T01:14:43.007Z,10.05
2016-04-15T01:14:52.961Z,10.1
2016-04-15T01:15:02.963Z,10.09
2016-04-15T01:15:12.978Z,10.07
2016-04-15T01:15:22.978Z,10.05
2016-04-15T01:15:32.978Z,10.06
2016-04-15T01:15:42.994Z,10.03
2016-04-15T01:15:52.994Z,10.03
2016-04-15T01:16:02.998Z,10.03
2016-04-15T01:16:12.998Z,10.07
2016-04-15T01:16:23.013Z,10.06
2016-04-15T01:16:33.013Z,10.09
2016-04-15T01:16:43.013Z,10.21
2016-04-15T01:16:53.013Z,10.07
2016-04-15T01:17:03.047Z,10.06
2016-04-15T01:17:13.047Z,10.06
2016-04-15T01:17:23.047Z,10.07
2016-04-15T01:17:33.047Z,10.05
2016-04-15T01:17:43.047Z,10.05
2016-04-15T01:17:53.047Z,10.06
2016-04-15T01:18:03.050Z,10.07
2016-04-15T01:18:13.065Z,10.06
2016-04-15T01:18:23.065Z,10.17
2016-04-15T01:18:33.081Z,10.05
2016-04-15T01:18:43.081Z,10.06
2016-04-15T01:18:53.081Z,10.05
2016-04-15T01:19:03.084Z,10.05
2016-04-15T01:19:13.084Z,10.07
2016-04-15T01:19:23.100Z,10.07
2016-04-15T01:19:33.100Z,10.05
2016-04-15T01:19:43.100Z,10.12
2016-04-15T01:19:53.115Z,10.12
2016-04-15T01:20:03.117Z,10.05
2016-04-15T01:20:13.117Z,10.07
2016-04-15T01:20:23.117Z,10.06
2016-04-15T01:20:33.133Z,10.05
2016-04-15T01:20:43.133Z,10.07
2016-04-15T01:20:53.133Z,10.07
2016-04-15T01:21:03.151Z,10.1
2016-04-15T01:21:13.151Z,10.09
2016-04-15T01:21:23.151Z,10.02
2016-04-15T01:21:33.167Z,10.1
2016-04-15T01:21:43.167Z,10.03
2016-04-15T01:21:53.167Z,10.06
2016-04-15T01:22:03.169Z,10.02
2016-04-15T01:22:13.185Z,10.03
2016-04-15T01:22:23.185Z,10.06
2016-04-15T01:22:33.185Z,10.07
2016-04-15T01:22:43.200Z,10.07
2016-04-15T01:22:53.200Z,10.05
2016-04-15T01:23:03.203Z,10.07
2016-04-15T01:23:13.203Z,10.09
2016-04-15T01:23:23.219Z,10.03
2016-04-15T01:23:33.219Z,10.13
2016-04-15T01:23:43.219Z,10.05
2016-04-15T01:23:53.219Z,10.05
2016-04-15T01:24:03.238Z,10.06
2016-04-15T01:24:13.238Z,10.09
2016-04-15T01:24:23.238Z,10
2016-04-15T01:24:33.253Z,10.03
2016-04-15T01:24:43.253Z,10.06
2016-04-15T01:24:53.253Z,10.09
2016-04-15T01:25:03.255Z,10.06
2016-04-15T01:25:13.271Z,9.99
2016-04-15T01:25:23.271Z,10.03
2016-04-15T01:25:33.271Z,9.95
2016-04-15T01:25:43.286Z,9.99
2016-04-15T01:25:53.286Z,10.02
2016-04-15T01:26:03.290Z,10.02
2016-04-15T01:26:13.290Z,9.99
2016-04-15T01:26:23.306Z,9.94
2016-04-15T01:26:33.306Z,9.91
2016-04-15T01:26:43.306Z,9.97
2016-04-15T01:26:53.306Z,10.03
2016-04-15T01:27:03.324Z,9.95
2016-04-15T01:27:13.324Z,9.97
2016-04-15T01:27:23.339Z,9.95
2016-04-15T01:27:33.339Z,9.94
2016-04-15T01:27:43.339Z,10
2016-04-15T01:27:53.355Z,10.05
2016-04-15T01:28:03.358Z,9.95
2016-04-15T01:28:13.358Z,10.02
2016-04-15T01:28:23.374Z,9.94
2016-04-15T01:28:33.358Z,9.94
2016-04-15T01:28:43.374Z,9.95
2016-04-15T01:28:53.374Z,10
2016-04-15T01:29:03.377Z,9.95
2016-04-15T01:29:13.392Z,10.03
2016-04-15T01:29:23.392Z,9.94
2016-04-15T01:29:33.392Z,10
2016-04-15T01:29:43.408Z,10
2016-04-15T01:29:53.408Z,9.99
2016-04-15T01:30:03.410Z,10
2016-04-15T01:30:13.410Z,10.02
2016-04-15T01:30:23.425Z,10.02
2016-04-15T01:30:33.425Z,10.02
2016-04-15T01:30:43.425Z,10.02
2016-04-15T01:30:53.441Z,10.03
2016-04-15T01:31:03.444Z,9.99
2016-04-15T01:31:13.444Z,10.03
2016-04-15T01:31:23.444Z,10.03
2016-04-15T01:31:33.460Z,9.95
2016-04-15T01:31:43.460Z,9.95
2016-04-15T01:31:53.460Z,10.03
2016-04-15T01:32:03.477Z,10.02
2016-04-15T01:32:13.477Z,9.97
2016-04-15T01:32:23.477Z,9.99
2016-04-15T01:32:33.477Z,9.99
2016-04-15T01:32:43.493Z,10.05
2016-04-15T01:32:53.493Z,10
2016-04-15T01:33:03.496Z,10.05
2016-04-15T01:33:13.496Z,9.92
2016-04-15T01:33:23.512Z,10
2016-04-15T01:33:33.512Z,9.94
2016-04-15T01:33:43.512Z,9.97
2016-04-15T01:33:53.512Z,9.97
2016-04-15T01:34:03.530Z,9.99
2016-04-15T01:34:13.530Z,9.97
2016-04-15T01:34:23.530Z,9.99
2016-04-15T01:34:33.546Z,9.97
2016-04-15T01:34:43.546Z,10.03
2016-04-15T01:34:53.546Z,9.97
2016-04-15T01:35:03.564Z,9.99
2016-04-15T01:35:13.564Z,10.03
2016-04-15T01:35:23.564Z,10
2016-04-15T01:35:33.564Z,10
2016-04-15T01:35:43.580Z,9.99
2016-04-15T01:35:53.580Z,10.03
2016-04-15T01:36:03.582Z,10.02
2016-04-15T01:36:13.598Z,10.05
2016-04-15T01:36:23.598Z,10.05
2016-04-15T01:36:33.598Z,10.06
2016-04-15T01:36:43.598Z,9.97
2016-04-15T01:36:53.613Z,10.05
2016-04-15T01:37:03.616Z,10.05
2016-04-15T01:37:13.616Z,9.97
2016-04-15T01:37:23.632Z,9.95
2016-04-15T01:37:33.632Z,9.95
2016-04-15T01:37:43.632Z,10.07
2016-04-15T01:37:53.632Z,10.02
2016-04-15T01:38:03.650Z,10.02
2016-04-15T01:38:13.650Z,9.95
2016-04-15T01:38:23.650Z,10
2016-04-15T01:38:33.665Z,9.97
2016-04-15T01:38:43.665Z,9.99
2016-04-15T01:38:53.665Z,9.99
2016-04-15T01:39:03.668Z,9.97
2016-04-15T01:39:13.684Z,9.99
2016-04-15T01:39:23.684Z,10.05
2016-04-15T01:39:33.684Z,9.91
2016-04-15T01:39:43.699Z,9.95
2016-04-15T01:39:53.699Z,9.92
2016-04-15T01:40:03.702Z,9.97
2016-04-15T01:40:13.702Z,9.99
2016-04-15T01:40:23.718Z,9.92
2016-04-15T01:40:33.718Z,9.95
2016-04-15T01:40:43.718Z,9.95
2016-04-15T01:40:53.734Z,9.97
2016-04-15T01:41:03.736Z,9.92
2016-04-15T01:41:13.736Z,9.94
2016-04-15T01:41:23.736Z,9.97
2016-04-15T01:41:33.751Z,9.92
2016-04-15T01:41:43.751Z,9.95
2016-04-15T01:41:53.751Z,9.95
2016-04-15T01:42:03.755Z,9.92
2016-04-15T01:42:13.771Z,9.92
2016-04-15T01:42:23.771Z,10
2016-04-15T01:42:33.771Z,9.99
2016-04-15T01:42:43.787Z,9.97
2016-04-15T01:42:53.787Z,9.95
2016-04-15T01:43:03.789Z,9.95
2016-04-15T01:43:13.789Z,9.99
2016-04-15T01:43:23.804Z,9.95
2016-04-15T01:43:33.804Z,9.97
2016-04-15T01:43:43.804Z,9.97
2016-04-15T01:43:53.820Z,9.97
2016-04-15T01:44:03.823Z,10
2016-04-15T01:44:13.823Z,10.02
2016-04-15T01:44:23.823Z,10.02
2016-04-15T01:44:33.838Z,10.02
2016-04-15T01:44:43.838Z,9.92
2016-04-15T01:44:53.854Z,9.99
2016-04-15T01:45:03.857Z,10.03
2016-04-15T01:45:13.857Z,10.02
2016-04-15T01:45:23.857Z,10.09
2016-04-15T01:45:33.857Z,9.99
2016-04-15T01:45:43.873Z,10.05
2016-04-15T01:45:53.873Z,9.95
2016-04-15T01:46:03.875Z,9.97
2016-04-15T01:46:13.890Z,10
2016-04-15T01:46:23.890Z,10
2016-04-15T01:46:33.890Z,9.95
2016-04-15T01:46:43.890Z,9.99
2016-04-15T01:46:53.906Z,9.95
2016-04-15T01:47:03.909Z,9.97
2016-04-15T01:47:13.909Z,9.95
2016-04-15T01:47:23.925Z,9.94
2016-04-15T01:47:33.925Z,9.92
2016-04-15T01:47:43.940Z,9.97
2016-04-15T01:47:53.925Z,9.99
2016-04-15T01:48:03.942Z,9.99
2016-04-15T01:48:13.942Z,9.92
2016-04-15T01:48:23.958Z,9.97
2016-04-15T01:48:33.958Z,9.91
2016-04-15T01:48:43.958Z,9.97
2016-04-15T01:48:53.958Z,9.94
2016-04-15T01:49:03.961Z,9.94
2016-04-15T01:49:13.976Z,9.95
2016-04-15T01:49:23.976Z,9.92
2016-04-15T01:49:33.976Z,9.99
2016-04-15T01:49:43.992Z,9.94
2016-04-15T01:49:53.992Z,9.92
2016-04-15T01:50:03.995Z,9.92
2016-04-15T01:50:13.995Z,10
2016-04-15T01:50:24.011Z,9.95
2016-04-15T01:50:34.011Z,9.9
2016-04-15T01:50:44.011Z,9.95
2016-04-15T01:50:54.026Z,9.94
2016-04-15T01:51:04.028Z,9.95
2016-04-15T01:51:14.028Z,9.97
2016-04-15T01:51:24.044Z,9.97
2016-04-15T01:51:34.044Z,9.95
2016-04-15T01:51:44.044Z,10
2016-04-15T01:51:54.060Z,9.95
2016-04-15T01:52:04.063Z,10
2016-04-15T01:52:14.063Z,9.97
2016-04-15T01:52:24.063Z,9.97
2016-04-15T01:52:34.063Z,10.02
2016-04-15T01:52:44.078Z,9.95
2016-04-15T01:52:54.078Z,9.97
2016-04-15T01:53:04.080Z,9.99
2016-04-15T01:53:14.096Z,9.92
2016-04-15T01:53:24.096Z,10.03
2016-04-15T01:53:34.096Z,10
2016-04-15T01:53:44.096Z,9.95
2016-04-15T01:53:54.111Z,10.03
2016-04-15T01:54:04.114Z,9.95
2016-04-15T01:54:14.114Z,10
2016-04-15T01:54:24.114Z,10.05
2016-04-15T01:54:34.130Z,10.03
2016-04-15T01:54:44.146Z,10
2016-04-15T01:54:54.146Z,10.05
2016-04-15T01:55:04.149Z,10.02
2016-04-15T01:55:14.149Z,10.03
2016-04-15T01:55:24.149Z,9.99
2016-04-15T01:55:34.164Z,9.95
2016-04-15T01:55:44.164Z,10.02
2016-04-15T01:55:54.164Z,9.97
2016-04-15T01:56:04.166Z,10.05
2016-04-15T01:56:14.182Z,9.99
2016-04-15T01:56:24.182Z,10.05
2016-04-15T01:56:34.182Z,10.06
2016-04-15T01:56:44.198Z,10.07
2016-04-15T01:56:54.198Z,10.09
2016-04-15T01:57:04.202Z,10.02
2016-04-15T01:57:14.202Z,10.03
2016-04-15T01:57:24.202Z,10
2016-04-15T01:57:34.217Z,10.07
2016-04-15T01:57:44.217Z,10.07
2016-04-15T01:57:54.233Z,10.05
2016-04-15T01:58:04.235Z,9.99
2016-04-15T01:58:14.235Z,10.03
2016-04-15T01:58:24.235Z,10.06
2016-04-15T01:58:34.250Z,10.03
2016-04-15T01:58:44.250Z,10.02
2016-04-15T01:58:54.250Z,10.06
2016-04-15T01:59:04.269Z,10.05
2016-04-15T01:59:14.269Z,10.02
2016-04-15T01:59:24.269Z,10.05
2016-04-15T01:59:34.269Z,10.07
2016-04-15T01:59:44.285Z,10.05
2016-04-15T01:59:54.332Z,10.07
2016-04-15T02:00:04.288Z,10.13
2016-04-15T02:00:14.303Z,10.13
2016-04-15T02:00:24.303Z,10.09
2016-04-15T02:00:34.303Z,10.06
2016-04-15T02:00:44.303Z,10.1
2016-04-15T02:00:54.303Z,10.1
2016-04-15T02:01:04.322Z,10.13
2016-04-15T02:01:14.338Z,10.13
2016-04-15T02:01:24.322Z,10.06
2016-04-15T02:01:34.338Z,10.07
2016-04-15T02:01:44.338Z,10.05
2016-04-15T02:01:54.338Z,10.07
2016-04-15T02:02:04.355Z,10.09
2016-04-15T02:02:14.355Z,10.13
2016-04-15T02:02:24.355Z,10.13
2016-04-15T02:02:34.355Z,10
2016-04-15T02:02:44.371Z,10.05
2016-04-15T02:02:54.371Z,10.07
2016-04-15T02:03:04.374Z,10.06
2016-04-15T02:03:14.389Z,10.07
2016-04-15T02:03:24.389Z,10.02
2016-04-15T02:03:34.389Z,10.06
2016-04-15T02:03:44.389Z,10.09
2016-04-15T02:03:54.405Z,10.07
2016-04-15T02:04:04.407Z,10.03
2016-04-15T02:04:14.407Z,10.05
2016-04-15T02:04:24.423Z,10.09
2016-04-15T02:04:34.423Z,10.07
2016-04-15T02:04:44.423Z,10.09
2016-04-15T02:04:54.423Z,10.09
2016-04-15T02:05:04.441Z,10.15
2016-04-15T02:05:14.441Z,10.09
2016-04-15T02:05:24.441Z,10.1
2016-04-15T02:05:34.457Z,10.06
2016-04-15T02:05:44.457Z,10.03
2016-04-15T02:05:54.457Z,10.06
2016-04-15T02:06:04.460Z,10.05
2016-04-15T02:06:14.476Z,10.03
2016-04-15T02:06:24.476Z,10.06
2016-04-15T02:06:34.476Z,10.03
2016-04-15T02:06:44.476Z,10.05
2016-04-15T02:06:54.491Z,10.09
2016-04-15T02:07:04.494Z,10.09
2016-04-15T02:07:14.494Z,10.03
2016-04-15T02:07:24.510Z,10.06
2016-04-15T02:07:34.510Z,10.09
2016-04-15T02:07:44.510Z,10.03
2016-04-15T02:07:54.525Z,10.06
2016-04-15T02:08:04.528Z,10.18
2016-04-15T02:08:14.528Z,10.09
2016-04-15T02:08:24.528Z,10.03
2016-04-15T02:08:34.544Z,10.07
2016-04-15T02:08:44.544Z,10.09
2016-04-15T02:08:54.544Z,10.15
2016-04-15T02:09:04.562Z,10.15
2016-04-15T02:09:14.562Z,10.1
2016-04-15T02:09:24.562Z,10.12
2016-04-15T02:09:34.562Z,10.07
2016-04-15T02:09:44.577Z,10.09
2016-04-15T02:09:54.577Z,10.1
2016-04-15T02:10:04.580Z,10.05
2016-04-15T02:10:14.580Z,10.15